Time;durP1;ratioP1;P1;durP2;ratioP2;P2;SDS_P1;SDS_P2;PMS_P1;PMS_P2;Temp;Humidity;BMP_temperature;BMP_pressure;BME280_temperature;BME280_humidity;BME280_pressure;Samples;Min_cycle;Max_cycle;Signal;HPM_P1;HPM_P2
2022/09/24 00:00:39;;;;;;;8.30;5.50;;;6.80;99.90;;;;;;5215575;28;20455;-60
2022/09/24 00:03:18;;;;;;;7.93;4.63;;;6.80;99.90;;;;;;5216262;28;20025;-59
2022/09/24 00:05:53;;;;;;;5.32;3.47;;;6.80;99.90;;;;;;5205288;28;20048;-59
2022/09/24 00:08:27;;;;;;;3.95;2.85;;;6.70;99.90;;;;;;5218170;28;20040;-60
2022/09/24 00:11:04;;;;;;;3.58;3.00;;;6.60;99.90;;;;;;5219723;28;20031;-60
2022/09/24 00:13:39;;;;;;;4.40;2.67;;;6.50;99.90;;;;;;5217436;28;20400;-60
2022/09/24 00:16:17;;;;;;;3.35;2.80;;;6.50;99.90;;;;;;5218571;28;20309;-60
2022/09/24 00:18:48;;;;;;;5.20;4.07;;;6.40;99.90;;;;;;5208909;28;20029;-60
2022/09/24 00:21:29;;;;;;;4.75;3.05;;;6.30;99.90;;;;;;5205247;28;20041;-61
2022/09/24 00:24:10;;;;;;;3.53;2.58;;;6.30;99.90;;;;;;5213203;28;20542;-60
2022/09/24 00:27:06;;;;;;;8.48;2.60;;;6.30;99.90;;;;;;5219119;28;20032;-60
2022/09/24 00:29:43;;;;;;;4.68;2.67;;;6.20;99.90;;;;;;5210070;28;20017;-60
2022/09/24 00:32:16;;;;;;;4.05;3.00;;;6.20;99.90;;;;;;5205950;28;20020;-60
2022/09/24 00:34:52;;;;;;;3.80;3.17;;;6.10;99.90;;;;;;5219218;28;20025;-59
2022/09/24 00:37:23;;;;;;;7.60;3.03;;;6.10;99.90;;;;;;5218608;28;20266;-59
2022/09/24 00:39:56;;;;;;;3.65;3.13;;;6.10;99.90;;;;;;5219019;28;20093;-60
2022/09/24 00:42:31;;;;;;;4.13;3.40;;;6.00;99.90;;;;;;5209165;28;20040;-60
2022/09/24 00:45:05;;;;;;;7.57;3.85;;;6.00;99.90;;;;;;5201787;28;20254;-60
2022/09/24 00:47:41;;;;;;;5.45;3.38;;;5.90;99.90;;;;;;5218613;28;20039;-60
2022/09/24 00:50:22;;;;;;;4.83;3.07;;;6.00;99.90;;;;;;5205803;28;20041;-60
2022/09/24 00:53:08;;;;;;;4.32;3.08;;;6.00;99.90;;;;;;5215058;28;20258;-60
2022/09/24 00:55:46;;;;;;;7.50;3.80;;;6.00;99.90;;;;;;5203965;28;20013;-60
2022/09/24 00:58:17;;;;;;;3.42;2.95;;;6.00;99.90;;;;;;5203966;28;20021;-60
2022/09/24 01:03:31;;;;;;;4.13;2.72;;;6.10;99.90;;;;;;5200002;28;20045;-73
2022/09/24 01:06:04;;;;;;;3.60;3.05;;;6.10;99.90;;;;;;5173940;28;20038;-72
2022/09/24 01:08:36;;;;;;;4.13;3.00;;;6.00;99.90;;;;;;5182563;28;20041;-72
2022/09/24 01:11:38;;;;;;;3.53;2.90;;;6.10;99.90;;;;;;5200543;28;20039;-72
2022/09/24 01:14:31;;;;;;;3.58;2.65;;;6.10;99.90;;;;;;5163626;28;20041;-73
2022/09/24 01:17:22;;;;;;;3.83;3.00;;;6.00;99.90;;;;;;5196094;28;20395;-72
2022/09/24 01:19:58;;;;;;;4.07;2.88;;;6.00;99.90;;;;;;5199422;28;20037;-74
2022/09/24 01:22:57;;;;;;;3.75;3.00;;;5.90;99.90;;;;;;5200724;28;20029;-72
2022/09/24 01:25:47;;;;;;;3.67;2.63;;;5.90;99.90;;;;;;5198080;28;20468;-71
2022/09/24 01:28:18;;;;;;;3.40;2.95;;;6.00;99.90;;;;;;5199025;28;20136;-71
2022/09/24 01:31:02;;;;;;;3.90;2.55;;;6.00;99.90;;;;;;5201037;28;20028;-71
2022/09/24 01:33:35;;;;;;;2.83;2.40;;;5.90;99.90;;;;;;5195387;28;20246;-73
2022/09/24 01:36:08;;;;;;;3.92;2.70;;;5.90;99.90;;;;;;5193258;28;20346;-72
2022/09/24 01:38:46;;;;;;;4.13;3.00;;;5.90;99.90;;;;;;5200677;28;20037;-73
2022/09/24 01:41:18;;;;;;;9.43;4.22;;;5.90;99.90;;;;;;5199503;28;20033;-72
2022/09/24 01:43:50;;;;;;;5.85;3.28;;;5.90;99.90;;;;;;5198238;28;20538;-72
2022/09/24 01:46:24;;;;;;;4.97;3.35;;;5.90;99.90;;;;;;5194214;28;20428;-72
2022/09/24 01:49:02;;;;;;;4.90;3.55;;;5.90;99.90;;;;;;5188548;28;20043;-72
2022/09/24 01:51:38;;;;;;;4.18;3.38;;;5.90;99.90;;;;;;5190770;28;20043;-72
2022/09/24 01:54:23;;;;;;;4.15;3.15;;;5.90;99.90;;;;;;5196121;28;20051;-71
2022/09/24 01:57:00;;;;;;;3.85;3.00;;;5.90;99.90;;;;;;5193924;28;20033;-74
2022/09/24 01:59:39;;;;;;;3.90;2.92;;;5.90;99.90;;;;;;5195951;28;20044;-71
2022/09/24 02:02:44;;;;;;;3.40;2.72;;;5.90;99.90;;;;;;5194658;28;20059;-74
2022/09/24 02:05:24;;;;;;;3.50;2.83;;;5.80;99.90;;;;;;5169929;28;20037;-71
2022/09/24 02:08:17;;;;;;;7.38;3.20;;;5.80;99.90;;;;;;5176420;28;20048;-72
2022/09/24 02:11:22;;;;;;;3.28;2.95;;;5.80;99.90;;;;;;5176699;28;20042;-72
2022/09/24 02:14:13;;;;;;;3.97;2.88;;;5.70;99.90;;;;;;5095466;29;20406;-73
2022/09/24 02:16:48;;;;;;;3.40;3.10;;;5.70;99.90;;;;;;5105567;29;20033;-72
2022/09/24 02:19:26;;;;;;;4.28;3.35;;;5.80;99.90;;;;;;5106922;29;20037;-72
2022/09/24 02:21:59;;;;;;;4.15;3.40;;;5.80;99.90;;;;;;5105867;29;20027;-72
2022/09/24 02:24:36;;;;;;;5.63;3.45;;;5.90;99.90;;;;;;5097160;29;20075;-71
2022/09/24 02:27:07;;;;;;;6.13;3.90;;;5.90;99.90;;;;;;5105881;28;20043;-71
2022/09/24 02:29:41;;;;;;;4.97;3.60;;;5.80;99.90;;;;;;5114501;29;20048;-73
2022/09/24 02:32:16;;;;;;;5.25;3.63;;;5.80;99.90;;;;;;5112042;28;20021;-72
2022/09/24 02:34:55;;;;;;;4.78;3.70;;;5.80;99.90;;;;;;5101374;29;20049;-72
2022/09/24 02:37:27;;;;;;;3.05;2.75;;;5.90;99.90;;;;;;5117457;29;20267;-72
2022/09/24 02:40:01;;;;;;;3.58;3.15;;;5.90;99.90;;;;;;5117407;29;20030;-72
2022/09/24 02:42:33;;;;;;;4.47;3.33;;;5.90;99.90;;;;;;5105252;29;20051;-74
2022/09/24 02:45:05;;;;;;;4.75;3.30;;;5.90;99.90;;;;;;5086174;29;20155;-73
2022/09/24 02:47:36;;;;;;;3.50;2.92;;;6.00;99.90;;;;;;5117061;29;20589;-74
2022/09/24 02:50:08;;;;;;;3.55;2.38;;;6.00;99.90;;;;;;5159096;28;20042;-73
2022/09/24 02:52:39;;;;;;;6.20;2.83;;;6.10;99.90;;;;;;5196155;28;20041;-73
2022/09/24 02:55:11;;;;;;;4.50;3.00;;;6.10;99.90;;;;;;5199405;28;20035;-73
2022/09/24 02:57:42;;;;;;;3.50;2.88;;;6.20;99.90;;;;;;5193387;28;20029;-73
2022/09/24 03:00:14;;;;;;;3.80;2.75;;;6.30;99.90;;;;;;5192731;28;20029;-73
2022/09/24 03:02:48;;;;;;;4.55;3.33;;;6.30;99.90;;;;;;5191202;28;20075;-73
2022/09/24 03:05:20;;;;;;;;;;;6.40;99.90;;;;;;5193971;28;20045;-73
2022/09/24 03:07:51;;;;;;;3.03;2.53;;;6.40;99.90;;;;;;5197892;28;20182;-73
2022/09/24 03:10:23;;;;;;;3.40;2.70;;;6.40;99.90;;;;;;5189390;28;20045;-74
2022/09/24 03:12:55;;;;;;;3.20;2.90;;;6.40;99.90;;;;;;5198791;28;20033;-73
2022/09/24 03:15:26;;;;;;;2.47;2.28;;;6.50;99.90;;;;;;5202704;28;20218;-73
2022/09/24 03:17:57;;;;;;;3.92;2.20;;;6.40;99.90;;;;;;5203259;28;20036;-74
2022/09/24 03:20:29;;;;;;;3.22;2.50;;;6.40;99.90;;;;;;5205121;28;20364;-73
2022/09/24 03:23:00;;;;;;;2.88;2.30;;;6.40;99.90;;;;;;5206741;28;20041;-74
2022/09/24 03:25:32;;;;;;;4.85;3.00;;;6.40;99.90;;;;;;5189773;28;20029;-73
2022/09/24 03:28:03;;;;;;;3.70;2.33;;;6.40;99.90;;;;;;5200083;28;20029;-74
2022/09/24 03:33:29;;;;;;;2.90;2.47;;;6.30;99.90;;;;;;5192942;28;20317;-73
2022/09/24 03:36:11;;;;;;;3.55;2.33;;;6.20;99.90;;;;;;5192816;28;20527;-74
2022/09/24 03:38:48;;;;;;;3.15;2.63;;;6.10;99.90;;;;;;5184972;28;20029;-73
2022/09/24 03:41:23;;;;;;;2.70;2.03;;;6.10;99.90;;;;;;5206725;28;20560;-73
2022/09/24 03:43:54;;;;;;;3.08;2.80;;;6.10;99.90;;;;;;5206912;28;20031;-74
2022/09/24 03:46:28;;;;;;;3.97;2.78;;;6.10;99.90;;;;;;5172581;28;20042;-73
2022/09/24 03:49:02;;;;;;;3.47;2.72;;;6.10;99.90;;;;;;5202721;28;20036;-73
2022/09/24 03:51:33;;;;;;;2.95;2.67;;;6.10;99.90;;;;;;5208733;28;20037;-73
2022/09/24 03:54:05;;;;;;;3.00;2.35;;;6.10;99.90;;;;;;5203622;28;20063;-73
2022/09/24 03:56:36;;;;;;;3.22;2.80;;;6.10;99.90;;;;;;5199921;28;20025;-73
2022/09/24 03:59:11;;;;;;;3.30;2.97;;;6.10;99.90;;;;;;5195131;28;20023;-73
2022/09/24 04:01:42;;;;;;;4.75;3.15;;;6.10;99.90;;;;;;5196535;28;20032;-74
2022/09/24 04:04:15;;;;;;;4.97;3.22;;;6.10;99.90;;;;;;5191915;28;20025;-73
2022/09/24 04:06:48;;;;;;;3.55;3.08;;;6.20;99.90;;;;;;5198733;28;20047;-74
2022/09/24 04:09:19;;;;;;;4.00;3.22;;;6.20;99.90;;;;;;5180460;28;20315;-74
2022/09/24 04:11:54;;;;;;;3.70;3.22;;;6.30;99.90;;;;;;5200044;28;20067;-74
2022/09/24 04:14:28;;;;;;;5.68;3.78;;;6.30;99.90;;;;;;5199865;28;20424;-74
2022/09/24 04:17:02;;;;;;;13.73;4.38;;;6.30;99.90;;;;;;5198219;28;20037;-73
2022/09/24 04:19:38;;;;;;;5.22;3.90;;;6.20;99.90;;;;;;5181490;28;20049;-73
2022/09/24 04:22:10;;;;;;;5.53;3.90;;;6.10;99.90;;;;;;5200203;28;20033;-73
2022/09/24 04:24:41;;;;;;;6.10;4.00;;;6.10;99.90;;;;;;5198870;28;20671;-73
2022/09/24 04:27:15;;;;;;;7.15;5.43;;;6.10;99.90;;;;;;5198534;28;20028;-73
2022/09/24 04:29:49;;;;;;;4.65;3.45;;;6.00;99.90;;;;;;5190764;28;20039;-73
2022/09/24 04:32:20;;;;;;;9.63;6.83;;;6.00;99.90;;;;;;5197455;28;20352;-73
2022/09/24 04:34:51;;;;;;;8.20;5.85;;;6.00;99.90;;;;;;5199167;28;20247;-74
2022/09/24 04:37:25;;;;;;;9.27;4.47;;;6.00;99.90;;;;;;5198265;28;20022;-72
2022/09/24 04:39:57;;;;;;;6.93;5.10;;;6.00;99.90;;;;;;5192797;28;20038;-72
2022/09/24 04:42:33;;;;;;;7.03;4.78;;;6.00;99.90;;;;;;5199248;28;20033;-74
2022/09/24 04:45:09;;;;;;;5.97;4.28;;;6.10;99.90;;;;;;5196663;28;20026;-74
2022/09/24 04:47:41;;;;;;;8.18;4.47;;;6.10;99.90;;;;;;5197529;28;20037;-72
2022/09/24 04:50:12;;;;;;;5.35;3.60;;;6.10;99.90;;;;;;5197390;28;20044;-73
2022/09/24 04:52:43;;;;;;;8.52;4.57;;;6.10;99.90;;;;;;5198144;28;20037;-74
2022/09/24 04:55:15;;;;;;;5.18;3.80;;;6.10;99.90;;;;;;5197127;28;20113;-75
2022/09/24 04:57:47;;;;;;;5.93;4.53;;;6.20;99.90;;;;;;5196070;28;20033;-72
2022/09/24 05:00:23;;;;;;;8.32;4.13;;;6.30;99.90;;;;;;5198073;28;20034;-73
2022/09/24 05:02:59;;;;;;;4.85;4.03;;;6.40;99.90;;;;;;5198646;28;20030;-72
2022/09/24 05:05:36;;;;;;;5.85;4.75;;;6.40;99.90;;;;;;5187301;28;20053;-72
2022/09/24 05:08:09;;;;;;;7.13;4.63;;;6.50;99.90;;;;;;5190596;28;20037;-72
2022/09/24 05:10:40;;;;;;;4.70;4.20;;;6.60;99.90;;;;;;5198474;28;20033;-73
2022/09/24 05:13:12;;;;;;;5.20;3.50;;;6.70;99.90;;;;;;5198269;28;20021;-72
2022/09/24 05:15:49;;;;;;;6.15;4.10;;;6.80;99.90;;;;;;5197097;28;20033;-72
2022/09/24 05:18:20;;;;;;;9.23;4.97;;;6.80;99.90;;;;;;5191722;28;20021;-73
2022/09/24 05:21:00;;;;;;;9.02;4.20;;;6.90;99.90;;;;;;5197523;28;20039;-72
2022/09/24 05:23:31;;;;;;;4.90;3.88;;;7.00;99.90;;;;;;5196946;28;20025;-73
2022/09/24 05:28:54;;;;;;;6.38;4.38;;;7.20;99.90;;;;;;5196412;28;20029;-74
2022/09/24 05:31:25;;;;;;;5.93;4.50;;;7.50;99.90;;;;;;5178807;28;20041;-73
2022/09/24 05:33:57;;;;;;;5.93;4.57;;;7.60;99.90;;;;;;5198299;28;20015;-72
2022/09/24 05:36:31;;;;;;;5.18;3.70;;;7.70;99.90;;;;;;5198136;28;20402;-73
2022/09/24 05:39:03;;;;;;;8.52;4.85;;;8.00;99.90;;;;;;5194752;28;20021;-73
2022/09/24 05:41:34;;;;;;;7.93;3.97;;;8.30;99.90;;;;;;5195336;28;20013;-72
2022/09/24 05:44:05;;;;;;;4.28;3.50;;;8.50;99.90;;;;;;5193393;28;20048;-73
2022/09/24 05:46:38;;;;;;;5.90;4.25;;;8.70;99.90;;;;;;5197722;28;20048;-73
2022/09/24 05:49:12;;;;;;;5.75;3.97;;;9.10;99.90;;;;;;5179338;28;20064;-72
2022/09/24 05:51:43;;;;;;;6.38;3.72;;;9.40;99.90;;;;;;5195702;28;20862;-73
2022/09/24 05:54:16;;;;;;;5.38;3.92;;;9.40;99.90;;;;;;5197208;28;20053;-73
2022/09/24 05:56:47;;;;;;;5.07;3.95;;;9.40;99.90;;;;;;5181637;28;20041;-72
2022/09/24 05:59:18;;;;;;;5.10;4.00;;;9.50;99.90;;;;;;5194414;28;20028;-73
2022/09/24 06:01:53;;;;;;;5.82;4.65;;;9.60;99.90;;;;;;5195979;28;20043;-72
2022/09/24 06:04:24;;;;;;;;;;;9.60;99.90;;;;;;5189085;28;20582;-73
2022/09/24 06:06:55;;;;;;;5.82;4.30;;;9.60;99.90;;;;;;5181101;28;19947;-73
2022/09/24 06:09:26;;;;;;;8.73;3.80;;;9.60;99.90;;;;;;5195529;28;20032;-71
2022/09/24 06:12:00;;;;;;;4.05;3.30;;;9.60;99.90;;;;;;5197083;28;20037;-72
2022/09/24 06:14:31;;;;;;;4.85;3.33;;;9.30;99.90;;;;;;5199018;28;20022;-71
2022/09/24 06:17:02;;;;;;;4.53;3.47;;;9.10;99.90;;;;;;5200186;28;20025;-72
2022/09/24 06:19:36;;;;;;;4.90;3.38;;;8.90;99.90;;;;;;5197350;28;20041;-73
2022/09/24 06:22:07;;;;;;;14.90;8.75;;;9.10;99.90;;;;;;5185102;28;20340;-72
2022/09/24 06:24:38;;;;;;;5.07;4.47;;;9.50;99.90;;;;;;5187029;28;20034;-73
2022/09/24 06:27:10;;;;;;;4.75;3.80;;;10.10;99.90;;;;;;5175621;28;20038;-72
2022/09/24 06:29:41;;;;;;;12.18;7.60;;;10.30;99.90;;;;;;5187729;28;20035;-72
2022/09/24 06:32:12;;;;;;;16.67;10.25;;;10.50;99.90;;;;;;5162537;28;20045;-72
2022/09/24 06:34:44;;;;;;;6.15;4.18;;;10.80;99.90;;;;;;5181871;28;20033;-73
2022/09/24 06:37:15;;;;;;;4.70;3.72;;;10.80;99.90;;;;;;5195045;28;20364;-73
2022/09/24 06:39:46;;;;;;;6.25;3.47;;;11.10;99.90;;;;;;5192863;28;20048;-72
2022/09/24 06:42:23;;;;;;;5.03;4.03;;;11.30;99.90;;;;;;5196020;28;20068;-72
2022/09/24 06:44:54;;;;;;;6.18;3.88;;;12.20;99.90;;;;;;5199609;28;20051;-72
2022/09/24 06:47:25;;;;;;;5.13;3.88;;;12.90;99.90;;;;;;5198643;28;20025;-73
2022/09/24 06:49:56;;;;;;;6.13;4.00;;;13.20;99.90;;;;;;5194119;28;20044;-72
2022/09/24 06:52:29;;;;;;;4.88;4.07;;;13.70;99.90;;;;;;5196886;28;20033;-72
2022/09/24 06:55:00;;;;;;;4.93;3.70;;;14.00;99.90;;;;;;5196462;28;20020;-73
2022/09/24 06:57:31;;;;;;;4.55;3.92;;;14.20;99.90;;;;;;5198380;28;20288;-72
2022/09/24 07:00:05;;;;;;;6.13;4.60;;;14.20;99.90;;;;;;5197596;28;20040;-72
2022/09/24 07:02:37;;;;;;;6.90;4.82;;;13.80;99.90;;;;;;5197630;28;20249;-73
2022/09/24 07:05:09;;;;;;;6.13;4.05;;;13.40;99.90;;;;;;5188352;28;20064;-74
2022/09/24 07:07:40;;;;;;;15.63;9.45;;;13.20;99.90;;;;;;5184482;28;20047;-73
2022/09/24 07:10:12;;;;;;;8.70;6.30;;;12.70;99.90;;;;;;5197054;28;20049;-73
2022/09/24 07:12:43;;;;;;;6.65;4.20;;;12.60;99.90;;;;;;5196023;28;20029;-73
2022/09/24 07:15:14;;;;;;;6.35;4.97;;;13.10;99.90;;;;;;5196387;28;20221;-73
2022/09/24 07:17:48;;;;;;;6.93;4.38;;;13.60;99.90;;;;;;5198100;28;20200;-72
2022/09/24 07:20:21;;;;;;;6.40;4.82;;;13.80;99.90;;;;;;5192494;28;20414;-73
2022/09/24 07:22:53;;;;;;;7.77;4.70;;;14.10;99.90;;;;;;5196499;28;20032;-72
2022/09/24 07:25:24;;;;;;;8.02;4.43;;;14.10;99.90;;;;;;5196765;28;20048;-73
2022/09/24 07:28:09;;;;;;;6.38;4.03;;;14.20;99.90;;;;;;5198989;28;20029;-73
2022/09/24 07:30:40;;;;;;;5.65;4.30;;;14.30;99.90;;;;;;5198719;28;20444;-73
2022/09/24 07:33:14;;;;;;;6.40;4.32;;;14.60;99.90;;;;;;5199461;28;20028;-72
2022/09/24 07:35:45;;;;;;;7.13;4.80;;;14.80;99.90;;;;;;5199697;28;20239;-72
2022/09/24 07:38:22;;;;;;;5.43;4.20;;;15.10;99.90;;;;;;5196511;28;20871;-72
2022/09/24 07:40:57;;;;;;;6.22;4.55;;;15.10;99.90;;;;;;5196187;28;20021;-72
2022/09/24 07:43:32;;;;;;;7.32;3.75;;;15.40;99.90;;;;;;5195508;28;20537;-72
2022/09/24 07:46:03;;;;;;;6.53;4.18;;;15.80;99.90;;;;;;5194353;28;20034;-73
2022/09/24 07:48:35;;;;;;;7.55;4.00;;;15.80;99.90;;;;;;5192183;28;20334;-72
2022/09/24 07:51:09;;;;;;;7.43;4.82;;;16.10;99.90;;;;;;5170425;28;20208;-73
2022/09/24 07:53:40;;;;;;;6.47;4.25;;;15.10;99.90;;;;;;5194839;28;20031;-73
2022/09/24 07:56:11;;;;;;;7.25;5.05;;;15.30;99.90;;;;;;5181968;28;20035;-72
2022/09/24 07:58:45;;;;;;;5.88;4.55;;;16.10;99.90;;;;;;5198969;28;20045;-72
2022/09/24 08:01:19;;;;;;;6.93;5.38;;;16.40;99.90;;;;;;5196358;28;20041;-73
2022/09/24 08:03:54;;;;;;;4.80;4.30;;;17.10;99.90;;;;;;5199833;28;20039;-73
2022/09/24 08:06:25;;;;;;;9.93;4.53;;;16.90;99.90;;;;;;5202644;28;20051;-74
2022/09/24 08:08:56;;;;;;;5.07;4.40;;;17.00;99.90;;;;;;5197238;28;20033;-73
2022/09/24 08:11:30;;;;;;;8.32;4.90;;;17.30;99.90;;;;;;5199705;28;20040;-72
2022/09/24 08:14:01;;;;;;;6.05;4.88;;;17.30;99.90;;;;;;5199906;28;20029;-73
2022/09/24 08:16:33;;;;;;;5.68;4.50;;;17.00;99.90;;;;;;5196229;28;20038;-73
2022/09/24 08:19:05;;;;;;;7.85;4.55;;;17.00;99.90;;;;;;5197173;28;20025;-73
2022/09/24 08:21:37;;;;;;;5.63;4.40;;;17.00;99.90;;;;;;5200858;28;20494;-73
2022/09/24 08:24:09;;;;;;;5.28;4.10;;;17.30;99.90;;;;;;5222909;28;20035;-73
2022/09/24 08:26:46;;;;;;;7.90;5.00;;;17.50;99.90;;;;;;5214984;28;20319;-73
2022/09/24 08:29:17;;;;;;;4.88;3.95;;;17.80;99.90;;;;;;5199353;28;20037;-73
2022/09/24 08:31:48;;;;;;;4.72;4.10;;;17.90;99.90;;;;;;5196752;28;20053;-73
2022/09/24 08:34:21;;;;;;;4.85;4.35;;;17.80;99.90;;;;;;5184770;28;20033;-74
2022/09/24 08:36:55;;;;;;;7.70;4.55;;;17.90;99.90;;;;;;5177272;28;20053;-72
2022/09/24 08:39:27;;;;;;;4.97;4.32;;;18.60;99.90;;;;;;5177322;28;20025;-73
2022/09/24 08:42:10;;;;;;;6.38;4.38;;;18.70;99.90;;;;;;5178322;28;20038;-73
2022/09/24 08:48:03;;;;;;;6.82;4.45;;;17.80;99.90;;;;;;5189271;28;20044;-73
2022/09/24 08:50:38;;;;;;;5.95;4.60;;;18.30;99.90;;;;;;5196196;28;20041;-73
2022/09/24 08:53:27;;;;;;;6.68;4.70;;;18.30;99.90;;;;;;5181441;28;20216;-73
2022/09/24 08:55:59;;;;;;;5.05;4.20;;;18.70;99.90;;;;;;5200528;28;20131;-74
2022/09/24 08:58:45;;;;;;;9.25;4.10;;;19.30;99.90;;;;;;5201674;28;20033;-73
2022/09/24 09:01:39;;;;;;;4.47;4.07;;;18.90;99.90;;;;;;5198622;28;20033;-73
2022/09/24 09:04:28;;;;;;;7.03;4.53;;;19.10;99.90;;;;;;5194284;28;20029;-73
2022/09/24 09:07:17;;;;;;;6.63;4.07;;;18.80;99.90;;;;;;5199957;28;20195;-73
2022/09/24 09:09:56;;;;;;;5.82;4.57;;;19.30;99.90;;;;;;5201182;28;20361;-73
2022/09/24 09:13:00;;;;;;;6.35;4.88;;;18.60;99.90;;;;;;5198859;28;20583;-73
2022/09/24 09:15:37;;;;;;;7.03;4.50;;;19.00;99.90;;;;;;5194514;28;20331;-73
2022/09/24 09:18:28;;;;;;;5.57;3.90;;;19.20;99.90;;;;;;5195601;28;20029;-73
2022/09/24 09:21:27;;;;;;;5.72;3.90;;;19.40;99.90;;;;;;5199462;28;20021;-72
2022/09/24 09:24:03;;;;;;;6.93;4.90;;;19.70;99.90;;;;;;5198258;28;20323;-74
2022/09/24 09:26:34;;;;;;;7.65;4.28;;;19.80;99.90;;;;;;5200709;28;20037;-72
2022/09/24 09:29:09;;;;;;;4.95;4.40;;;20.00;99.90;;;;;;5196141;28;20299;-73
2022/09/24 09:31:44;;;;;;;6.78;4.35;;;20.60;99.90;;;;;;5195910;28;20041;-72
2022/09/24 09:34:31;;;;;;;5.38;4.10;;;20.50;99.90;;;;;;5193369;28;20903;-74
2022/09/24 09:37:23;;;;;;;4.30;3.55;;;20.80;99.90;;;;;;5196279;28;20033;-72
2022/09/24 09:40:17;;;;;;;4.88;4.38;;;21.00;99.90;;;;;;5196875;28;20246;-73
2022/09/24 09:42:48;;;;;;;6.10;4.43;;;20.40;99.90;;;;;;5197759;28;20299;-73
2022/09/24 09:45:50;;;;;;;4.35;3.95;;;20.50;99.90;;;;;;5185285;28;20030;-72
2022/09/24 09:48:27;;;;;;;4.63;3.90;;;20.80;99.90;;;;;;5163614;28;20037;-75
2022/09/24 09:51:03;;;;;;;9.60;3.80;;;20.60;99.90;;;;;;5197033;28;20345;-74
2022/09/24 09:53:34;;;;;;;4.70;4.15;;;21.00;99.90;;;;;;5199271;28;20025;-73
2022/09/24 09:56:07;;;;;;;7.88;4.63;;;21.60;99.90;;;;;;5198345;28;20037;-73
2022/09/24 09:58:46;;;;;;;5.43;3.78;;;20.90;99.90;;;;;;5200094;28;20040;-73
2022/09/24 10:01:19;;;;;;;3.97;3.42;;;20.90;99.90;;;;;;5197194;28;20210;-73
2022/09/24 10:03:51;;;;;;;4.15;3.75;;;21.60;99.90;;;;;;5198409;28;20025;-73
2022/09/24 10:06:30;;;;;;;6.32;4.35;;;21.70;99.90;;;;;;5205549;28;20041;-73
2022/09/24 10:09:15;;;;;;;4.70;3.92;;;21.60;99.90;;;;;;5199710;28;20124;-72
2022/09/24 10:11:47;;;;;;;3.80;3.10;;;22.80;99.90;;;;;;5194682;28;20034;-74
2022/09/24 10:14:21;;;;;;;6.32;3.90;;;23.30;99.90;;;;;;5184904;28;20045;-75
2022/09/24 10:16:54;;;;;;;5.45;3.88;;;23.80;99.90;;;;;;5199388;28;20306;-74
2022/09/24 10:19:27;;;;;;;4.72;4.05;;;22.70;99.90;;;;;;5193365;28;20029;-73
2022/09/24 10:22:14;;;;;;;5.70;4.45;;;22.40;99.90;;;;;;5199760;28;20231;-73
2022/09/24 10:24:45;;;;;;;5.82;3.30;;;22.90;99.90;;;;;;5200011;28;20096;-73
2022/09/24 10:27:41;;;;;;;4.80;3.47;;;23.10;99.90;;;;;;5199880;28;20039;-73
2022/09/24 10:30:33;;;;;;;8.18;4.30;;;24.00;99.90;;;;;;5199874;28;20262;-73
2022/09/24 10:33:07;;;;;;;9.77;3.75;;;23.90;99.90;;;;;;5198166;28;20049;-73
2022/09/24 10:35:38;;;;;;;7.75;4.20;;;24.20;99.90;;;;;;5195488;28;20428;-72
2022/09/24 10:38:19;;;;;;;5.70;3.70;;;24.30;99.90;;;;;;5198278;28;20025;-73
2022/09/24 10:40:55;;;;;;;4.55;3.30;;;23.90;99.90;;;;;;5185717;28;20033;-73
2022/09/24 10:43:27;;;;;;;5.05;3.70;;;23.40;99.90;;;;;;5197403;28;20060;-73
2022/09/24 10:46:17;;;;;;;4.20;3.55;;;23.50;99.90;;;;;;5200451;28;20115;-72
2022/09/24 10:48:53;;;;;;;4.10;3.17;;;23.60;99.90;;;;;;5187900;28;20029;-72
2022/09/24 10:51:40;;;;;;;5.35;3.58;;;23.90;99.90;;;;;;5200077;28;20051;-72
2022/09/24 10:54:14;;;;;;;4.68;4.05;;;23.70;99.90;;;;;;5199916;28;20017;-72
2022/09/24 10:56:56;;;;;;;6.15;3.45;;;23.30;99.90;;;;;;5198735;28;20282;-72
2022/09/24 11:00:15;;;;;;;7.20;4.10;;;22.70;99.90;;;;;;5199676;28;20337;-72
2022/09/24 11:03:13;;;;;;;4.75;4.28;;;21.70;99.90;;;;;;5192651;28;20041;-74
2022/09/24 11:06:17;;;;;;;4.22;3.42;;;21.20;99.90;;;;;;5192184;28;20055;-73
2022/09/24 11:09:16;;;;;;;5.70;3.75;;;21.50;99.90;;;;;;5186169;28;20041;-72
2022/09/24 11:12:07;;;;;;;5.30;4.10;;;21.40;99.90;;;;;;5191795;28;20039;-73
2022/09/24 11:15:03;;;;;;;7.72;4.60;;;21.60;99.90;;;;;;5189660;28;20598;-72
2022/09/24 11:17:50;;;;;;;7.00;3.60;;;22.10;99.90;;;;;;5196320;28;20537;-73
2022/09/24 11:20:36;;;;;;;4.38;3.67;;;22.60;99.90;;;;;;5194858;28;20578;-72
2022/09/24 11:23:31;;;;;;;5.00;4.22;;;22.60;99.90;;;;;;5196513;28;20025;-73
2022/09/24 11:26:06;;;;;;;;;;;23.20;99.90;;;;;;5175717;28;20041;-72
2022/09/24 11:28:43;;;;;;;4.72;4.07;;;23.80;99.90;;;;;;5178247;28;19909;-74
2022/09/24 11:31:51;;;;;;;5.25;4.10;;;24.50;99.90;;;;;;5200152;28;20025;-72
2022/09/24 11:35:03;;;;;;;5.07;3.90;;;25.60;99.90;;;;;;5181703;28;20040;-74
2022/09/24 11:37:50;;;;;;;4.82;4.40;;;24.80;99.90;;;;;;5136568;28;20173;-73
2022/09/24 11:40:43;;;;;;;4.88;3.90;;;24.90;99.90;;;;;;5150863;28;20040;-73
2022/09/24 11:43:32;;;;;;;5.97;3.92;;;25.90;99.90;;;;;;5157800;28;20030;-74
2022/09/24 11:46:21;;;;;;;4.70;4.07;;;27.00;99.90;;;;;;5156994;28;20034;-72
2022/09/24 11:49:12;;;;;;;5.78;3.70;;;27.00;99.90;;;;;;5156874;28;20457;-72
2022/09/24 11:51:55;;;;;;;7.15;4.78;;;27.20;99.90;;;;;;5157486;28;20549;-74
2022/09/24 11:54:42;;;;;;;5.43;4.45;;;25.80;99.90;;;;;;5156803;28;20037;-73
2022/09/24 11:57:45;;;;;;;8.48;4.30;;;26.70;99.90;;;;;;5139136;28;20030;-73
2022/09/24 12:00:22;;;;;;;5.55;4.00;;;28.80;99.90;;;;;;5154267;28;20034;-72
2022/09/24 12:03:05;;;;;;;3.83;3.50;;;29.90;99.90;;;;;;5155215;28;20038;-73
2022/09/24 12:05:43;;;;;;;3.72;3.40;;;29.30;99.90;;;;;;5147324;28;20057;-73
2022/09/24 12:08:46;;;;;;;4.97;3.95;;;28.60;99.90;;;;;;5152145;28;20283;-72
2022/09/24 12:11:45;;;;;;;4.82;3.60;;;27.60;99.90;;;;;;5138129;28;20046;-72
2022/09/24 12:14:25;;;;;;;5.82;4.07;;;28.00;99.90;;;;;;5152565;28;20403;-72
2022/09/24 12:17:04;;;;;;;4.30;3.58;;;27.90;99.90;;;;;;5163403;28;20041;-73
2022/09/24 12:19:38;;;;;;;5.13;3.75;;;29.60;99.90;;;;;;5177832;28;20243;-73
2022/09/24 12:22:10;;;;;;;4.07;3.65;;;30.60;99.90;;;;;;5178921;28;20349;-73
2022/09/24 12:24:49;;;;;;;4.55;3.85;;;30.30;99.90;;;;;;5181213;28;20436;-73
2022/09/24 12:27:37;;;;;;;4.75;3.40;;;30.70;99.90;;;;;;5179134;28;20067;-72
2022/09/24 12:33:30;;;;;;;5.85;3.92;;;30.10;99.90;;;;;;5177199;28;20038;-72
2022/09/24 12:36:18;;;;;;;4.55;3.80;;;29.70;99.90;;;;;;5176974;28;20032;-74
2022/09/24 12:39:13;;;;;;;7.38;3.42;;;29.70;99.90;;;;;;5169723;28;20030;-72
2022/09/24 12:41:55;;;;;;;4.80;3.63;;;29.30;99.90;;;;;;5157716;28;20036;-72
2022/09/24 12:44:42;;;;;;;5.70;3.65;;;28.70;99.90;;;;;;5157962;28;20368;-72
2022/09/24 12:47:25;;;;;;;5.15;3.40;;;28.30;99.90;;;;;;5168577;28;20021;-73
2022/09/24 12:50:04;;;;;;;3.80;3.30;;;28.00;99.90;;;;;;5176157;28;20050;-73
2022/09/24 12:52:44;;;;;;;4.20;3.40;;;28.10;99.90;;;;;;5176168;28;20034;-72
2022/09/24 12:55:22;;;;;;;5.03;3.45;;;27.80;99.90;;;;;;5174426;28;20029;-73
2022/09/24 12:57:59;;;;;;;4.05;3.22;;;27.60;99.90;;;;;;5175774;28;20030;-73
2022/09/24 13:00:36;;;;;;;6.30;3.63;;;27.00;99.90;;;;;;5175476;28;20030;-72
2022/09/24 13:03:40;;;;;;;3.90;3.28;;;26.40;99.90;;;;;;5174485;28;20045;-72
2022/09/24 13:06:38;;;;;;;3.08;2.65;;;25.70;99.90;;;;;;5157373;28;20042;-74
2022/09/24 13:09:34;;;;;;;3.70;3.22;;;25.40;99.90;;;;;;5176200;28;20347;-74
2022/09/24 13:12:19;;;;;;;3.55;3.20;;;24.70;99.90;;;;;;5162858;28;20044;-72
2022/09/24 13:15:03;;;;;;;3.92;3.30;;;25.00;99.90;;;;;;5176782;28;20046;-72
2022/09/24 13:17:37;;;;;;;3.95;3.25;;;24.20;99.90;;;;;;5165203;28;20249;-72
2022/09/24 13:20:17;;;;;;;;;;;24.30;99.90;;;;;;5175348;28;20046;-72
2022/09/24 13:22:57;;;;;;;3.70;3.40;;;23.80;99.90;;;;;;5161275;28;19902;-73
2022/09/24 13:25:31;;;;;;;3.70;2.85;;;24.10;99.90;;;;;;5160086;28;20041;-73
2022/09/24 13:28:24;;;;;;;3.15;2.85;;;24.10;99.90;;;;;;5163246;28;20175;-74
2022/09/24 13:31:15;;;;;;;3.53;2.75;;;23.80;99.90;;;;;;5167994;28;20028;-73
2022/09/24 13:33:51;;;;;;;3.42;2.67;;;23.60;99.90;;;;;;5176293;28;20030;-74
2022/09/24 13:36:35;;;;;;;3.58;2.80;;;23.30;99.90;;;;;;5175708;28;20034;-72
2022/09/24 13:39:09;;;;;;;;;;;23.60;99.90;;;;;;5176421;28;20288;-72
2022/09/24 13:41:46;;;;;;;4.93;3.17;;;23.40;99.90;;;;;;5177537;28;19901;-72
2022/09/24 13:44:26;;;;;;;2.92;2.60;;;23.00;99.90;;;;;;5171643;28;20208;-72
2022/09/24 13:47:11;;;;;;;5.88;2.83;;;22.90;99.90;;;;;;5175290;28;20216;-72
2022/09/24 13:49:46;;;;;;;;;;;22.90;99.90;;;;;;5177414;28;20415;-72
2022/09/24 13:52:20;;;;;;;3.05;2.72;;;22.70;99.90;;;;;;5177025;28;19914;-72
2022/09/24 13:54:59;;;;;;;7.43;3.05;;;22.60;99.90;;;;;;5177683;28;20036;-73
2022/09/24 13:57:43;;;;;;;3.00;2.72;;;22.30;99.90;;;;;;5175037;28;20033;-72
2022/09/24 14:00:18;;;;;;;3.05;2.75;;;21.90;99.90;;;;;;5168762;28;20037;-73
2022/09/24 14:02:54;;;;;;;3.30;3.00;;;21.70;99.90;;;;;;5175126;28;20041;-73